Savoy, South Dakota
Current Conditions -  °F | °C
As of 4:55 PM on Monday 20 Oct 2014 (Local Time) from KSPF Reporting Station
Clear Clear  
Wind Chill: 72°   Ceiling: Unl
Heat Index: 72°   Visibility: 10mi
Dew Point: 50°   Wind: 5mph
Humidity: 46%   Direction: 70°ENE
Pressure: 29.95"   Gusts: NA
Location:  44.253°N, 103.912°W
Report Text: KSPF 202255Z AUTO 07004KT 10SM CLR 22/10 A2995 RMK AO2
Loading
Personal Weather Stations






























Interactive Weather Map
Tropical Storm Tracking
New forecast layout! Learn more

10-Day Weather Forecast

Advertisements
Track Severe Weather on mobile